sensor_id;sensor_type;location;lat;lon;timestamp;P1;durP1;ratioP1;P2;durP2;ratioP2
9720;SDS011;4899;42.644;23.366;2023-09-19T00:02:23;4.80;;;4.40;;
9720;SDS011;4899;42.644;23.366;2023-09-19T00:04:48;4.57;;;4.03;;
9720;SDS011;4899;42.644;23.366;2023-09-19T00:07:15;5.50;;;4.10;;
9720;SDS011;4899;42.644;23.366;2023-09-19T00:09:41;4.93;;;4.50;;
9720;SDS011;4899;42.644;23.366;2023-09-19T00:12:06;4.50;;;4.00;;
9720;SDS011;4899;42.644;23.366;2023-09-19T00:14:34;5.30;;;4.40;;
9720;SDS011;4899;42.644;23.366;2023-09-19T00:17:03;5.67;;;4.40;;
9720;SDS011;4899;42.644;23.366;2023-09-19T00:19:31;4.77;;;4.37;;
9720;SDS011;4899;42.644;23.366;2023-09-19T00:21:57;5.83;;;4.20;;
9720;SDS011;4899;42.644;23.366;2023-09-19T00:24:26;4.47;;;4.07;;
9720;SDS011;4899;42.644;23.366;2023-09-19T00:26:53;5.40;;;4.30;;
9720;SDS011;4899;42.644;23.366;2023-09-19T00:29:19;4.70;;;4.40;;
9720;SDS011;4899;42.644;23.366;2023-09-19T00:31:44;4.50;;;4.10;;
9720;SDS011;4899;42.644;23.366;2023-09-19T00:34:10;5.90;;;4.60;;
9720;SDS011;4899;42.644;23.366;2023-09-19T00:36:38;6.47;;;4.20;;
9720;SDS011;4899;42.644;23.366;2023-09-19T00:39:04;6.23;;;4.97;;
9720;SDS011;4899;42.644;23.366;2023-09-19T00:41:33;4.80;;;4.27;;
9720;SDS011;4899;42.644;23.366;2023-09-19T00:44:00;5.30;;;4.80;;
9720;SDS011;4899;42.644;23.366;2023-09-19T00:46:27;5.27;;;4.60;;
9720;SDS011;4899;42.644;23.366;2023-09-19T00:48:52;5.13;;;4.63;;
9720;SDS011;4899;42.644;23.366;2023-09-19T00:51:17;6.50;;;4.27;;
9720;SDS011;4899;42.644;23.366;2023-09-19T00:53:46;4.90;;;4.50;;
9720;SDS011;4899;42.644;23.366;2023-09-19T00:56:11;5.67;;;4.80;;
9720;SDS011;4899;42.644;23.366;2023-09-19T00:58:36;4.83;;;4.43;;
9720;SDS011;4899;42.644;23.366;2023-09-19T01:01:02;5.07;;;4.57;;
9720;SDS011;4899;42.644;23.366;2023-09-19T01:03:31;5.20;;;4.70;;
9720;SDS011;4899;42.644;23.366;2023-09-19T01:05:57;8.60;;;4.97;;
9720;SDS011;4899;42.644;23.366;2023-09-19T01:08:22;5.40;;;4.27;;
9720;SDS011;4899;42.644;23.366;2023-09-19T01:10:55;5.63;;;5.10;;
9720;SDS011;4899;42.644;23.366;2023-09-19T01:29:34;6.57;;;5.47;;
9720;SDS011;4899;42.644;23.366;2023-09-19T01:32:04;6.20;;;5.27;;
9720;SDS011;4899;42.644;23.366;2023-09-19T01:37:15;6.07;;;5.53;;
9720;SDS011;4899;42.644;23.366;2023-09-19T01:39:45;5.50;;;4.97;;
9720;SDS011;4899;42.644;23.366;2023-09-19T01:47:28;5.53;;;5.03;;
9720;SDS011;4899;42.644;23.366;2023-09-19T01:52:46;5.70;;;5.20;;
9720;SDS011;4899;42.644;23.366;2023-09-19T01:55:13;6.73;;;4.40;;
9720;SDS011;4899;42.644;23.366;2023-09-19T01:57:45;5.50;;;5.10;;
9720;SDS011;4899;42.644;23.366;2023-09-19T02:00:14;5.10;;;4.70;;
9720;SDS011;4899;42.644;23.366;2023-09-19T02:02:40;5.97;;;5.30;;
9720;SDS011;4899;42.644;23.366;2023-09-19T02:05:07;7.33;;;5.37;;
9720;SDS011;4899;42.644;23.366;2023-09-19T02:07:32;6.23;;;5.13;;
9720;SDS011;4899;42.644;23.366;2023-09-19T02:09:58;5.53;;;4.93;;
9720;SDS011;4899;42.644;23.366;2023-09-19T02:12:30;5.90;;;5.30;;
9720;SDS011;4899;42.644;23.366;2023-09-19T02:14:56;7.20;;;6.50;;
9720;SDS011;4899;42.644;23.366;2023-09-19T02:17:22;7.43;;;6.73;;
9720;SDS011;4899;42.644;23.366;2023-09-19T02:19:51;7.20;;;6.20;;
9720;SDS011;4899;42.644;23.366;2023-09-19T02:22:17;7.70;;;6.83;;
9720;SDS011;4899;42.644;23.366;2023-09-19T02:24:42;8.50;;;7.70;;
9720;SDS011;4899;42.644;23.366;2023-09-19T02:27:08;7.67;;;6.97;;
9720;SDS011;4899;42.644;23.366;2023-09-19T02:29:33;9.73;;;7.30;;
9720;SDS011;4899;42.644;23.366;2023-09-19T02:32:01;7.80;;;7.10;;
9720;SDS011;4899;42.644;23.366;2023-09-19T02:34:26;8.17;;;7.37;;
9720;SDS011;4899;42.644;23.366;2023-09-19T02:36:52;7.70;;;6.90;;
9720;SDS011;4899;42.644;23.366;2023-09-19T02:39:20;8.43;;;7.37;;
9720;SDS011;4899;42.644;23.366;2023-09-19T02:41:45;7.53;;;6.80;;
9720;SDS011;4899;42.644;23.366;2023-09-19T02:44:11;7.60;;;7.00;;
9720;SDS011;4899;42.644;23.366;2023-09-19T02:46:37;10.00;;;7.33;;
9720;SDS011;4899;42.644;23.366;2023-09-19T02:49:02;7.70;;;7.00;;
9720;SDS011;4899;42.644;23.366;2023-09-19T02:51:31;8.00;;;7.20;;
9720;SDS011;4899;42.644;23.366;2023-09-19T02:53:58;8.03;;;7.00;;
9720;SDS011;4899;42.644;23.366;2023-09-19T02:56:24;6.97;;;6.30;;
9720;SDS011;4899;42.644;23.366;2023-09-19T02:58:50;7.87;;;7.13;;
9720;SDS011;4899;42.644;23.366;2023-09-19T03:01:16;9.90;;;6.70;;
9720;SDS011;4899;42.644;23.366;2023-09-19T03:03:41;6.90;;;6.30;;
9720;SDS011;4899;42.644;23.366;2023-09-19T03:06:06;7.20;;;6.60;;
9720;SDS011;4899;42.644;23.366;2023-09-19T03:08:34;7.00;;;6.20;;
9720;SDS011;4899;42.644;23.366;2023-09-19T03:11:01;7.10;;;6.27;;
9720;SDS011;4899;42.644;23.366;2023-09-19T03:13:27;7.07;;;6.30;;
9720;SDS011;4899;42.644;23.366;2023-09-19T03:15:54;6.90;;;6.20;;
9720;SDS011;4899;42.644;23.366;2023-09-19T03:18:21;6.40;;;5.80;;
9720;SDS011;4899;42.644;23.366;2023-09-19T03:20:54;7.37;;;6.37;;
9720;SDS011;4899;42.644;23.366;2023-09-19T03:23:20;6.83;;;6.13;;
9720;SDS011;4899;42.644;23.366;2023-09-19T03:25:45;8.17;;;5.83;;
9720;SDS011;4899;42.644;23.366;2023-09-19T03:28:11;6.70;;;6.00;;
9720;SDS011;4899;42.644;23.366;2023-09-19T03:30:37;7.10;;;6.30;;
9720;SDS011;4899;42.644;23.366;2023-09-19T03:33:03;7.07;;;6.37;;
9720;SDS011;4899;42.644;23.366;2023-09-19T03:35:29;6.57;;;5.97;;
9720;SDS011;4899;42.644;23.366;2023-09-19T03:37:55;7.47;;;6.67;;
9720;SDS011;4899;42.644;23.366;2023-09-19T03:40:20;8.33;;;6.17;;
9720;SDS011;4899;42.644;23.366;2023-09-19T03:42:46;7.10;;;6.40;;
9720;SDS011;4899;42.644;23.366;2023-09-19T03:45:13;7.27;;;6.67;;
9720;SDS011;4899;42.644;23.366;2023-09-19T03:47:39;7.37;;;6.77;;
9720;SDS011;4899;42.644;23.366;2023-09-19T03:50:05;8.03;;;6.87;;
9720;SDS011;4899;42.644;23.366;2023-09-19T03:52:33;7.23;;;6.57;;
9720;SDS011;4899;42.644;23.366;2023-09-19T03:54:58;7.67;;;6.83;;
9720;SDS011;4899;42.644;23.366;2023-09-19T03:57:27;8.90;;;7.10;;
9720;SDS011;4899;42.644;23.366;2023-09-19T03:59:53;8.50;;;7.60;;
9720;SDS011;4899;42.644;23.366;2023-09-19T04:02:18;7.63;;;6.93;;
9720;SDS011;4899;42.644;23.366;2023-09-19T04:04:48;7.83;;;7.03;;
9720;SDS011;4899;42.644;23.366;2023-09-19T04:07:13;8.20;;;7.43;;
9720;SDS011;4899;42.644;23.366;2023-09-19T04:09:38;8.57;;;7.83;;
9720;SDS011;4899;42.644;23.366;2023-09-19T04:12:04;8.63;;;7.83;;
9720;SDS011;4899;42.644;23.366;2023-09-19T04:14:30;8.37;;;7.77;;
9720;SDS011;4899;42.644;23.366;2023-09-19T04:16:55;8.97;;;8.17;;
9720;SDS011;4899;42.644;23.366;2023-09-19T04:19:21;10.57;;;8.63;;
9720;SDS011;4899;42.644;23.366;2023-09-19T04:21:47;10.00;;;8.63;;
9720;SDS011;4899;42.644;23.366;2023-09-19T04:24:13;9.13;;;8.27;;
9720;SDS011;4899;42.644;23.366;2023-09-19T04:26:41;10.57;;;8.27;;
9720;SDS011;4899;42.644;23.366;2023-09-19T04:29:07;9.97;;;8.33;;
9720;SDS011;4899;42.644;23.366;2023-09-19T04:31:34;9.20;;;8.30;;
9720;SDS011;4899;42.644;23.366;2023-09-19T04:34:00;10.60;;;9.10;;
9720;SDS011;4899;42.644;23.366;2023-09-19T04:36:30;10.17;;;9.00;;
9720;SDS011;4899;42.644;23.366;2023-09-19T04:38:55;11.50;;;8.77;;
9720;SDS011;4899;42.644;23.366;2023-09-19T04:41:20;9.63;;;8.47;;
9720;SDS011;4899;42.644;23.366;2023-09-19T04:43:47;9.77;;;8.57;;
9720;SDS011;4899;42.644;23.366;2023-09-19T04:46:12;9.47;;;8.57;;
9720;SDS011;4899;42.644;23.366;2023-09-19T04:48:39;10.73;;;8.53;;
9720;SDS011;4899;42.644;23.366;2023-09-19T04:51:05;11.03;;;9.87;;
9720;SDS011;4899;42.644;23.366;2023-09-19T04:53:30;10.77;;;9.37;;
9720;SDS011;4899;42.644;23.366;2023-09-19T04:55:55;9.73;;;8.73;;
9720;SDS011;4899;42.644;23.366;2023-09-19T04:58:22;11.20;;;8.70;;
9720;SDS011;4899;42.644;23.366;2023-09-19T05:00:47;13.77;;;8.50;;
9720;SDS011;4899;42.644;23.366;2023-09-19T05:03:13;9.60;;;8.60;;
9720;SDS011;4899;42.644;23.366;2023-09-19T05:05:38;10.50;;;9.13;;
9720;SDS011;4899;42.644;23.366;2023-09-19T05:08:07;9.93;;;8.77;;
9720;SDS011;4899;42.644;23.366;2023-09-19T05:10:34;9.70;;;8.73;;
9720;SDS011;4899;42.644;23.366;2023-09-19T05:13:00;9.90;;;8.90;;
9720;SDS011;4899;42.644;23.366;2023-09-19T05:15:26;9.17;;;8.20;;
9720;SDS011;4899;42.644;23.366;2023-09-19T05:17:51;11.27;;;8.17;;
9720;SDS011;4899;42.644;23.366;2023-09-19T05:20:19;8.60;;;7.70;;
9720;SDS011;4899;42.644;23.366;2023-09-19T05:23:12;9.57;;;7.60;;
9720;SDS011;4899;42.644;23.366;2023-09-19T05:25:38;8.67;;;7.83;;
9720;SDS011;4899;42.644;23.366;2023-09-19T05:28:07;8.43;;;7.53;;
9720;SDS011;4899;42.644;23.366;2023-09-19T05:30:33;9.53;;;7.57;;
9720;SDS011;4899;42.644;23.366;2023-09-19T05:33:00;10.90;;;7.13;;
9720;SDS011;4899;42.644;23.366;2023-09-19T05:35:30;10.90;;;6.43;;
9720;SDS011;4899;42.644;23.366;2023-09-19T05:37:56;8.20;;;6.13;;
9720;SDS011;4899;42.644;23.366;2023-09-19T05:40:21;6.60;;;5.77;;
9720;SDS011;4899;42.644;23.366;2023-09-19T05:42:46;7.77;;;6.13;;
9720;SDS011;4899;42.644;23.366;2023-09-19T05:45:12;6.77;;;5.97;;
9720;SDS011;4899;42.644;23.366;2023-09-19T05:47:41;7.10;;;6.40;;
9720;SDS011;4899;42.644;23.366;2023-09-19T05:50:10;7.70;;;6.27;;
9720;SDS011;4899;42.644;23.366;2023-09-19T05:52:36;8.17;;;5.30;;
9720;SDS011;4899;42.644;23.366;2023-09-19T05:55:04;7.27;;;5.37;;
9720;SDS011;4899;42.644;23.366;2023-09-19T05:57:30;6.53;;;5.63;;
9720;SDS011;4899;42.644;23.366;2023-09-19T05:59:55;6.43;;;5.87;;
9720;SDS011;4899;42.644;23.366;2023-09-19T06:02:21;6.93;;;5.60;;
9720;SDS011;4899;42.644;23.366;2023-09-19T06:04:46;7.97;;;5.33;;
9720;SDS011;4899;42.644;23.366;2023-09-19T06:07:11;7.23;;;5.33;;
9720;SDS011;4899;42.644;23.366;2023-09-19T06:09:37;7.27;;;5.60;;
9720;SDS011;4899;42.644;23.366;2023-09-19T06:12:02;7.27;;;5.33;;
9720;SDS011;4899;42.644;23.366;2023-09-19T06:14:29;5.70;;;5.10;;
9720;SDS011;4899;42.644;23.366;2023-09-19T06:16:55;6.27;;;5.27;;
9720;SDS011;4899;42.644;23.366;2023-09-19T06:19:21;7.57;;;5.47;;
9720;SDS011;4899;42.644;23.366;2023-09-19T06:21:47;6.40;;;4.80;;
9720;SDS011;4899;42.644;23.366;2023-09-19T06:24:13;5.97;;;5.07;;
9720;SDS011;4899;42.644;23.366;2023-09-19T06:26:38;6.90;;;6.30;;
9720;SDS011;4899;42.644;23.366;2023-09-19T06:29:03;9.70;;;6.43;;
9720;SDS011;4899;42.644;23.366;2023-09-19T06:31:29;6.60;;;6.00;;
9720;SDS011;4899;42.644;23.366;2023-09-19T06:33:56;8.00;;;6.00;;
9720;SDS011;4899;42.644;23.366;2023-09-19T06:36:21;6.70;;;5.90;;
9720;SDS011;4899;42.644;23.366;2023-09-19T06:38:47;6.93;;;5.80;;
9720;SDS011;4899;42.644;23.366;2023-09-19T06:41:13;8.30;;;5.97;;
9720;SDS011;4899;42.644;23.366;2023-09-19T06:43:39;7.37;;;6.30;;
9720;SDS011;4899;42.644;23.366;2023-09-19T06:46:05;10.33;;;5.10;;
9720;SDS011;4899;42.644;23.366;2023-09-19T06:48:32;7.13;;;5.33;;
9720;SDS011;4899;42.644;23.366;2023-09-19T06:50:58;7.77;;;5.80;;
9720;SDS011;4899;42.644;23.366;2023-09-19T06:53:27;10.13;;;7.17;;
9720;SDS011;4899;42.644;23.366;2023-09-19T06:55:54;7.70;;;5.80;;
9720;SDS011;4899;42.644;23.366;2023-09-19T06:58:20;6.07;;;5.00;;
9720;SDS011;4899;42.644;23.366;2023-09-19T07:00:45;6.57;;;5.70;;
9720;SDS011;4899;42.644;23.366;2023-09-19T07:03:11;7.30;;;6.20;;
9720;SDS011;4899;42.644;23.366;2023-09-19T07:05:38;6.37;;;5.77;;
9720;SDS011;4899;42.644;23.366;2023-09-19T07:08:04;5.03;;;4.63;;
9720;SDS011;4899;42.644;23.366;2023-09-19T07:10:31;5.33;;;4.83;;
9720;SDS011;4899;42.644;23.366;2023-09-19T07:13:04;7.67;;;4.67;;
9720;SDS011;4899;42.644;23.366;2023-09-19T07:15:34;6.97;;;4.03;;
9720;SDS011;4899;42.644;23.366;2023-09-19T07:18:01;5.47;;;4.97;;
9720;SDS011;4899;42.644;23.366;2023-09-19T07:20:27;6.87;;;5.20;;
9720;SDS011;4899;42.644;23.366;2023-09-19T07:22:54;7.10;;;4.90;;
9720;SDS011;4899;42.644;23.366;2023-09-19T07:25:20;6.63;;;5.20;;
9720;SDS011;4899;42.644;23.366;2023-09-19T07:27:48;8.13;;;5.50;;
9720;SDS011;4899;42.644;23.366;2023-09-19T07:30:14;7.80;;;5.70;;
9720;SDS011;4899;42.644;23.366;2023-09-19T07:32:41;11.20;;;6.40;;
9720;SDS011;4899;42.644;23.366;2023-09-19T07:35:06;10.23;;;6.53;;
9720;SDS011;4899;42.644;23.366;2023-09-19T07:37:31;9.37;;;6.97;;
9720;SDS011;4899;42.644;23.366;2023-09-19T07:39:59;7.50;;;6.63;;
9720;SDS011;4899;42.644;23.366;2023-09-19T07:42:25;9.47;;;8.50;;
9720;SDS011;4899;42.644;23.366;2023-09-19T07:44:51;9.97;;;7.73;;
9720;SDS011;4899;42.644;23.366;2023-09-19T07:47:20;8.83;;;6.73;;
9720;SDS011;4899;42.644;23.366;2023-09-19T07:49:48;7.83;;;6.10;;
9720;SDS011;4899;42.644;23.366;2023-09-19T07:52:14;6.63;;;5.90;;
9720;SDS011;4899;42.644;23.366;2023-09-19T07:54:40;7.03;;;6.43;;
9720;SDS011;4899;42.644;23.366;2023-09-19T07:57:06;7.63;;;6.90;;
9720;SDS011;4899;42.644;23.366;2023-09-19T07:59:31;8.70;;;7.80;;
9720;SDS011;4899;42.644;23.366;2023-09-19T08:01:56;10.10;;;6.50;;
9720;SDS011;4899;42.644;23.366;2023-09-19T08:04:22;7.33;;;6.07;;
9720;SDS011;4899;42.644;23.366;2023-09-19T08:06:50;7.30;;;6.20;;
9720;SDS011;4899;42.644;23.366;2023-09-19T08:09:17;7.37;;;6.40;;
9720;SDS011;4899;42.644;23.366;2023-09-19T08:11:46;8.03;;;6.97;;
9720;SDS011;4899;42.644;23.366;2023-09-19T08:14:12;10.47;;;7.00;;
9720;SDS011;4899;42.644;23.366;2023-09-19T08:16:39;7.03;;;6.20;;
9720;SDS011;4899;42.644;23.366;2023-09-19T08:19:04;6.17;;;5.67;;
9720;SDS011;4899;42.644;23.366;2023-09-19T08:21:31;7.50;;;6.27;;
9720;SDS011;4899;42.644;23.366;2023-09-19T08:24:02;7.20;;;6.50;;
9720;SDS011;4899;42.644;23.366;2023-09-19T08:26:29;7.97;;;7.07;;
9720;SDS011;4899;42.644;23.366;2023-09-19T08:28:54;8.30;;;7.17;;
9720;SDS011;4899;42.644;23.366;2023-09-19T08:31:22;6.70;;;6.10;;
9720;SDS011;4899;42.644;23.366;2023-09-19T08:33:48;6.30;;;5.73;;
9720;SDS011;4899;42.644;23.366;2023-09-19T08:36:14;9.47;;;6.17;;
9720;SDS011;4899;42.644;23.366;2023-09-19T08:38:40;7.23;;;6.53;;
9720;SDS011;4899;42.644;23.366;2023-09-19T08:41:06;7.43;;;5.90;;
9720;SDS011;4899;42.644;23.366;2023-09-19T08:43:32;6.27;;;5.77;;
9720;SDS011;4899;42.644;23.366;2023-09-19T08:46:10;5.93;;;5.20;;
9720;SDS011;4899;42.644;23.366;2023-09-19T08:48:39;7.67;;;5.80;;
9720;SDS011;4899;42.644;23.366;2023-09-19T08:51:07;7.60;;;5.63;;
9720;SDS011;4899;42.644;23.366;2023-09-19T08:56:08;7.43;;;4.80;;
9720;SDS011;4899;42.644;23.366;2023-09-19T08:58:43;5.97;;;4.80;;
9720;SDS011;4899;42.644;23.366;2023-09-19T09:01:09;6.70;;;4.80;;
9720;SDS011;4899;42.644;23.366;2023-09-19T09:03:35;5.93;;;5.20;;
9720;SDS011;4899;42.644;23.366;2023-09-19T09:06:02;5.47;;;4.80;;
9720;SDS011;4899;42.644;23.366;2023-09-19T09:08:27;5.20;;;4.70;;
9720;SDS011;4899;42.644;23.366;2023-09-19T09:10:53;7.07;;;4.97;;
9720;SDS011;4899;42.644;23.366;2023-09-19T09:13:22;8.70;;;5.57;;
9720;SDS011;4899;42.644;23.366;2023-09-19T09:15:49;8.17;;;4.90;;
9720;SDS011;4899;42.644;23.366;2023-09-19T09:18:15;7.60;;;4.83;;
9720;SDS011;4899;42.644;23.366;2023-09-19T09:20:40;5.50;;;4.97;;
9720;SDS011;4899;42.644;23.366;2023-09-19T09:23:06;5.53;;;4.87;;
9720;SDS011;4899;42.644;23.366;2023-09-19T09:25:51;6.57;;;4.77;;
9720;SDS011;4899;42.644;23.366;2023-09-19T09:28:20;6.47;;;4.60;;
9720;SDS011;4899;42.644;23.366;2023-09-19T09:30:46;7.43;;;5.10;;
9720;SDS011;4899;42.644;23.366;2023-09-19T09:33:12;6.37;;;4.50;;
9720;SDS011;4899;42.644;23.366;2023-09-19T09:35:54;6.10;;;4.77;;
9720;SDS011;4899;42.644;23.366;2023-09-19T09:38:25;5.27;;;4.87;;
9720;SDS011;4899;42.644;23.366;2023-09-19T09:40:54;7.17;;;4.60;;
9720;SDS011;4899;42.644;23.366;2023-09-19T09:43:35;5.97;;;4.50;;
9720;SDS011;4899;42.644;23.366;2023-09-19T09:46:19;5.37;;;4.80;;
9720;SDS011;4899;42.644;23.366;2023-09-19T09:51:32;6.43;;;5.20;;
9720;SDS011;4899;42.644;23.366;2023-09-19T09:54:13;5.70;;;5.00;;
9720;SDS011;4899;42.644;23.366;2023-09-19T09:56:53;7.17;;;4.57;;
9720;SDS011;4899;42.644;23.366;2023-09-19T09:59:20;6.57;;;4.83;;
9720;SDS011;4899;42.644;23.366;2023-09-19T10:01:48;9.23;;;5.17;;
9720;SDS011;4899;42.644;23.366;2023-09-19T10:04:26;7.60;;;4.73;;
9720;SDS011;4899;42.644;23.366;2023-09-19T10:06:54;5.37;;;4.93;;
9720;SDS011;4899;42.644;23.366;2023-09-19T10:09:19;6.90;;;5.00;;
9720;SDS011;4899;42.644;23.366;2023-09-19T10:11:49;6.10;;;4.90;;
9720;SDS011;4899;42.644;23.366;2023-09-19T10:14:29;5.30;;;4.80;;
9720;SDS011;4899;42.644;23.366;2023-09-19T10:16:56;5.87;;;5.20;;
9720;SDS011;4899;42.644;23.366;2023-09-19T10:19:40;7.37;;;5.23;;
9720;SDS011;4899;42.644;23.366;2023-09-19T10:22:11;7.37;;;4.93;;
9720;SDS011;4899;42.644;23.366;2023-09-19T10:24:38;6.67;;;4.93;;
9720;SDS011;4899;42.644;23.366;2023-09-19T10:27:06;6.00;;;4.90;;
9720;SDS011;4899;42.644;23.366;2023-09-19T10:29:34;5.40;;;5.00;;
9720;SDS011;4899;42.644;23.366;2023-09-19T10:32:01;9.47;;;5.03;;
9720;SDS011;4899;42.644;23.366;2023-09-19T10:34:34;7.53;;;4.40;;
9720;SDS011;4899;42.644;23.366;2023-09-19T10:37:00;6.47;;;5.13;;
9720;SDS011;4899;42.644;23.366;2023-09-19T10:39:30;4.83;;;4.40;;
9720;SDS011;4899;42.644;23.366;2023-09-19T10:41:56;6.20;;;4.93;;
9720;SDS011;4899;42.644;23.366;2023-09-19T10:44:27;6.10;;;5.60;;
9720;SDS011;4899;42.644;23.366;2023-09-19T10:46:54;6.20;;;5.30;;
9720;SDS011;4899;42.644;23.366;2023-09-19T10:49:20;6.07;;;4.77;;
9720;SDS011;4899;42.644;23.366;2023-09-19T10:51:46;5.23;;;4.73;;
9720;SDS011;4899;42.644;23.366;2023-09-19T10:54:15;5.20;;;4.70;;
9720;SDS011;4899;42.644;23.366;2023-09-19T10:56:42;7.77;;;5.17;;
9720;SDS011;4899;42.644;23.366;2023-09-19T10:59:17;5.53;;;5.00;;
9720;SDS011;4899;42.644;23.366;2023-09-19T11:01:47;5.90;;;5.03;;
9720;SDS011;4899;42.644;23.366;2023-09-19T11:06:59;11.53;;;5.23;;
9720;SDS011;4899;42.644;23.366;2023-09-19T11:09:25;11.32;;;6.00;;
9720;SDS011;4899;42.644;23.366;2023-09-19T11:12:07;7.32;;;5.05;;
9720;SDS011;4899;42.644;23.366;2023-09-19T11:14:37;4.97;;;4.57;;
9720;SDS011;4899;42.644;23.366;2023-09-19T11:20:32;6.70;;;4.60;;
9720;SDS011;4899;42.644;23.366;2023-09-19T11:22:28;6.07;;;4.80;;
9720;SDS011;4899;42.644;23.366;2023-09-19T11:30:31;4.97;;;4.50;;
9720;SDS011;4899;42.644;23.366;2023-09-19T11:33:16;5.30;;;4.20;;
9720;SDS011;4899;42.644;23.366;2023-09-19T11:46:20;6.18;;;4.75;;
9720;SDS011;4899;42.644;23.366;2023-09-19T11:48:49;6.93;;;4.40;;
9720;SDS011;4899;42.644;23.366;2023-09-19T11:51:16;7.85;;;4.97;;
9720;SDS011;4899;42.644;23.366;2023-09-19T11:53:47;6.10;;;4.43;;
9720;SDS011;4899;42.644;23.366;2023-09-19T11:56:14;5.65;;;4.60;;
9720;SDS011;4899;42.644;23.366;2023-09-19T11:58:40;5.43;;;4.50;;
9720;SDS011;4899;42.644;23.366;2023-09-19T12:01:07;4.60;;;4.20;;
9720;SDS011;4899;42.644;23.366;2023-09-19T12:03:37;5.30;;;4.10;;
9720;SDS011;4899;42.644;23.366;2023-09-19T12:06:15;6.85;;;4.45;;
9720;SDS011;4899;42.644;23.366;2023-09-19T12:08:44;7.88;;;4.55;;
9720;SDS011;4899;42.644;23.366;2023-09-19T12:11:15;5.90;;;4.18;;
9720;SDS011;4899;42.644;23.366;2023-09-19T12:13:45;8.52;;;4.90;;
9720;SDS011;4899;42.644;23.366;2023-09-19T12:16:12;6.30;;;4.60;;
9720;SDS011;4899;42.644;23.366;2023-09-19T12:18:40;5.20;;;4.57;;
9720;SDS011;4899;42.644;23.366;2023-09-19T12:21:06;5.90;;;4.63;;
9720;SDS011;4899;42.644;23.366;2023-09-19T12:23:37;5.97;;;4.40;;
9720;SDS011;4899;42.644;23.366;2023-09-19T12:26:06;5.53;;;4.47;;
9720;SDS011;4899;42.644;23.366;2023-09-19T12:28:40;4.95;;;4.35;;
9720;SDS011;4899;42.644;23.366;2023-09-19T12:31:07;4.80;;;4.47;;
9720;SDS011;4899;42.644;23.366;2023-09-19T12:33:33;7.93;;;4.40;;
9720;SDS011;4899;42.644;23.366;2023-09-19T12:35:59;6.43;;;4.22;;
9720;SDS011;4899;42.644;23.366;2023-09-19T12:38:25;7.03;;;4.38;;
9720;SDS011;4899;42.644;23.366;2023-09-19T12:40:51;7.70;;;4.43;;
9720;SDS011;4899;42.644;23.366;2023-09-19T12:43:16;6.80;;;4.13;;
9720;SDS011;4899;42.644;23.366;2023-09-19T12:45:43;5.57;;;4.65;;
9720;SDS011;4899;42.644;23.366;2023-09-19T12:48:20;4.30;;;3.90;;
9720;SDS011;4899;42.644;23.366;2023-09-19T12:51:10;4.90;;;4.40;;
9720;SDS011;4899;42.644;23.366;2023-09-19T12:53:38;8.07;;;7.05;;
9720;SDS011;4899;42.644;23.366;2023-09-19T12:56:16;7.65;;;4.35;;
9720;SDS011;4899;42.644;23.366;2023-09-19T12:59:14;6.07;;;4.40;;
9720;SDS011;4899;42.644;23.366;2023-09-19T13:01:36;6.07;;;4.00;;
9720;SDS011;4899;42.644;23.366;2023-09-19T13:04:18;4.35;;;3.95;;
9720;SDS011;4899;42.644;23.366;2023-09-19T13:06:47;5.38;;;3.85;;
9720;SDS011;4899;42.644;23.366;2023-09-19T13:09:19;4.30;;;3.67;;
9720;SDS011;4899;42.644;23.366;2023-09-19T13:11:49;3.95;;;3.55;;
9720;SDS011;4899;42.644;23.366;2023-09-19T13:19:41;4.32;;;4.03;;
9720;SDS011;4899;42.644;23.366;2023-09-19T13:24:56;3.97;;;3.67;;
9720;SDS011;4899;42.644;23.366;2023-09-19T13:27:23;4.95;;;4.00;;
9720;SDS011;4899;42.644;23.366;2023-09-19T13:29:48;4.13;;;3.58;;
9720;SDS011;4899;42.644;23.366;2023-09-19T13:32:17;5.00;;;4.28;;
9720;SDS011;4899;42.644;23.366;2023-09-19T13:34:42;6.10;;;4.07;;
9720;SDS011;4899;42.644;23.366;2023-09-19T13:37:07;3.97;;;3.67;;
9720;SDS011;4899;42.644;23.366;2023-09-19T13:39:35;6.05;;;3.50;;
9720;SDS011;4899;42.644;23.366;2023-09-19T13:42:01;5.90;;;3.58;;
9720;SDS011;4899;42.644;23.366;2023-09-19T13:44:28;3.78;;;3.47;;
9720;SDS011;4899;42.644;23.366;2023-09-19T13:46:54;7.53;;;3.88;;
9720;SDS011;4899;42.644;23.366;2023-09-19T13:49:21;5.28;;;3.90;;
9720;SDS011;4899;42.644;23.366;2023-09-19T13:51:48;4.25;;;3.75;;
9720;SDS011;4899;42.644;23.366;2023-09-19T13:54:13;3.70;;;3.40;;
9720;SDS011;4899;42.644;23.366;2023-09-19T13:56:42;7.15;;;3.83;;
9720;SDS011;4899;42.644;23.366;2023-09-19T13:59:08;6.22;;;4.22;;
9720;SDS011;4899;42.644;23.366;2023-09-19T14:01:33;4.30;;;3.90;;
9720;SDS011;4899;42.644;23.366;2023-09-19T14:03:58;4.38;;;3.72;;
9720;SDS011;4899;42.644;23.366;2023-09-19T14:06:24;4.35;;;3.80;;
9720;SDS011;4899;42.644;23.366;2023-09-19T14:08:49;6.72;;;4.10;;
9720;SDS011;4899;42.644;23.366;2023-09-19T14:11:15;3.90;;;3.60;;
9720;SDS011;4899;42.644;23.366;2023-09-19T14:13:41;4.15;;;3.60;;
9720;SDS011;4899;42.644;23.366;2023-09-19T14:16:09;4.63;;;4.20;;
9720;SDS011;4899;42.644;23.366;2023-09-19T14:18:34;4.57;;;4.28;;
9720;SDS011;4899;42.644;23.366;2023-09-19T14:21:06;5.40;;;4.28;;
9720;SDS011;4899;42.644;23.366;2023-09-19T14:23:36;4.63;;;4.22;;
9720;SDS011;4899;42.644;23.366;2023-09-19T14:26:01;5.30;;;4.30;;
9720;SDS011;4899;42.644;23.366;2023-09-19T14:28:26;4.90;;;4.30;;
9720;SDS011;4899;42.644;23.366;2023-09-19T14:30:52;4.53;;;4.22;;
9720;SDS011;4899;42.644;23.366;2023-09-19T14:33:17;4.57;;;4.28;;
9720;SDS011;4899;42.644;23.366;2023-09-19T14:35:42;4.65;;;4.25;;
9720;SDS011;4899;42.644;23.366;2023-09-19T14:38:08;4.60;;;4.13;;
9720;SDS011;4899;42.644;23.366;2023-09-19T14:40:33;5.93;;;4.50;;
9720;SDS011;4899;42.644;23.366;2023-09-19T14:42:58;5.40;;;4.90;;
9720;SDS011;4899;42.644;23.366;2023-09-19T14:45:27;4.22;;;3.92;;
9720;SDS011;4899;42.644;23.366;2023-09-19T14:47:53;5.60;;;4.60;;
9720;SDS011;4899;42.644;23.366;2023-09-19T14:50:21;4.53;;;4.15;;
9720;SDS011;4899;42.644;23.366;2023-09-19T14:52:47;4.80;;;4.32;;
9720;SDS011;4899;42.644;23.366;2023-09-19T14:55:14;5.72;;;4.47;;
9720;SDS011;4899;42.644;23.366;2023-09-19T14:57:40;4.65;;;4.07;;
9720;SDS011;4899;42.644;23.366;2023-09-19T15:00:07;4.93;;;4.53;;
9720;SDS011;4899;42.644;23.366;2023-09-19T15:02:37;4.55;;;4.15;;
9720;SDS011;4899;42.644;23.366;2023-09-19T15:05:03;5.30;;;4.85;;
9720;SDS011;4899;42.644;23.366;2023-09-19T15:07:28;5.35;;;4.90;;
9720;SDS011;4899;42.644;23.366;2023-09-19T15:09:54;7.22;;;4.60;;
9720;SDS011;4899;42.644;23.366;2023-09-19T15:12:19;5.30;;;4.82;;
9720;SDS011;4899;42.644;23.366;2023-09-19T15:14:44;5.00;;;4.60;;
9720;SDS011;4899;42.644;23.366;2023-09-19T15:17:09;4.93;;;4.45;;
9720;SDS011;4899;42.644;23.366;2023-09-19T15:19:35;5.20;;;4.80;;
9720;SDS011;4899;42.644;23.366;2023-09-19T15:22:00;5.05;;;4.55;;
9720;SDS011;4899;42.644;23.366;2023-09-19T15:24:26;6.68;;;4.93;;
9720;SDS011;4899;42.644;23.366;2023-09-19T15:26:52;5.60;;;4.68;;
9720;SDS011;4899;42.644;23.366;2023-09-19T15:29:17;8.98;;;8.23;;
9720;SDS011;4899;42.644;23.366;2023-09-19T15:31:42;6.18;;;5.13;;
9720;SDS011;4899;42.644;23.366;2023-09-19T15:34:08;8.68;;;5.78;;
9720;SDS011;4899;42.644;23.366;2023-09-19T15:36:33;8.57;;;7.70;;
9720;SDS011;4899;42.644;23.366;2023-09-19T15:38:59;7.30;;;6.55;;
9720;SDS011;4899;42.644;23.366;2023-09-19T15:41:30;8.35;;;5.53;;
9720;SDS011;4899;42.644;23.366;2023-09-19T15:43:59;6.47;;;5.88;;
9720;SDS011;4899;42.644;23.366;2023-09-19T15:46:28;6.78;;;6.10;;
9720;SDS011;4899;42.644;23.366;2023-09-19T15:48:58;9.50;;;6.18;;
9720;SDS011;4899;42.644;23.366;2023-09-19T15:51:24;5.93;;;5.30;;
9720;SDS011;4899;42.644;23.366;2023-09-19T15:53:50;6.57;;;5.47;;
9720;SDS011;4899;42.644;23.366;2023-09-19T15:56:19;7.93;;;5.20;;
9720;SDS011;4899;42.644;23.366;2023-09-19T15:58:46;5.93;;;5.25;;
9720;SDS011;4899;42.644;23.366;2023-09-19T16:01:15;8.30;;;5.95;;
9720;SDS011;4899;42.644;23.366;2023-09-19T16:03:45;6.13;;;5.45;;
9720;SDS011;4899;42.644;23.366;2023-09-19T16:06:15;6.60;;;5.75;;